Time;durP1;ratioP1;P1;durP2;ratioP2;P2;SDS_P1;SDS_P2;PMS_P1;PMS_P2;Temp;Humidity;BMP_temperature;BMP_pressure;BME280_temperature;BME280_humidity;BME280_pressure;Samples;Min_cycle;Max_cycle;Signal;HPM_P1;HPM_P2
2023/04/01 00:03:35;;;;;;;4.70;4.20;;;9.40;99.90;;;;;;10205741;29;20246;-81
2023/04/01 00:08:38;;;;;;;6.70;4.57;;;9.30;99.90;;;;;;10204022;29;20239;-81
2023/04/01 00:13:41;;;;;;;6.33;4.97;;;9.30;99.90;;;;;;10205129;29;20305;-81
2023/04/01 00:18:44;;;;;;;5.60;4.90;;;9.20;99.90;;;;;;10204704;29;20342;-81
2023/04/01 00:23:47;;;;;;;6.90;4.70;;;9.20;99.90;;;;;;10205025;29;20215;-81
2023/04/01 00:28:49;;;;;;;6.07;4.77;;;9.10;99.90;;;;;;10204031;29;20626;-81
2023/04/01 00:33:52;;;;;;;5.37;4.87;;;9.00;99.90;;;;;;10204840;29;20310;-81
2023/04/01 00:38:55;;;;;;;7.03;5.33;;;9.00;99.90;;;;;;10204841;29;20234;-81
2023/04/01 00:44:19;;;;;;;6.87;5.27;;;8.90;99.90;;;;;;10188735;29;20678;-81
2023/04/01 00:49:37;;;;;;;8.37;5.63;;;8.90;99.90;;;;;;10203807;29;20242;-81
2023/04/01 00:54:42;;;;;;;7.80;6.23;;;8.90;99.90;;;;;;10207518;29;20274;-81
2023/04/01 00:59:52;;;;;;;8.93;5.80;;;8.90;99.90;;;;;;10210605;29;20621;-81
2023/04/01 01:04:55;;;;;;;7.77;5.93;;;8.90;99.90;;;;;;10210993;29;20312;-81
2023/04/01 01:10:15;;;;;;;7.93;5.70;;;8.80;99.90;;;;;;10210174;29;20248;-81
2023/04/01 01:15:24;;;;;;;5.73;4.93;;;8.80;99.90;;;;;;10211052;29;20265;-81
2023/04/01 01:20:42;;;;;;;7.60;5.47;;;8.70;99.90;;;;;;10210418;29;20270;-81
2023/04/01 01:26:07;;;;;;;6.13;5.53;;;8.70;99.90;;;;;;10211294;29;20239;-81
2023/04/01 01:31:52;;;;;;;8.83;5.30;;;8.70;99.90;;;;;;10211227;29;20265;-81
2023/04/01 01:37:01;;;;;;;6.83;6.00;;;8.70;99.90;;;;;;10209724;29;20309;-81
2023/04/01 01:42:08;;;;;;;9.50;5.60;;;8.70;99.90;;;;;;10209176;29;20309;-81
2023/04/01 01:47:11;;;;;;;7.67;5.60;;;8.80;99.90;;;;;;10209796;29;20708;-81
2023/04/01 01:52:14;;;;;;;6.07;5.17;;;8.80;99.90;;;;;;10209992;29;20269;-81
2023/04/01 01:57:22;;;;;;;6.73;5.17;;;8.70;99.90;;;;;;10209389;29;20242;-81
2023/04/01 02:02:31;;;;;;;7.90;5.20;;;8.70;99.90;;;;;;10193438;29;20279;-81
2023/04/01 02:07:37;;;;;;;7.73;6.50;;;8.70;99.90;;;;;;10207784;29;20312;-81
2023/04/01 02:12:42;;;;;;;8.80;6.17;;;8.80;99.90;;;;;;10208761;29;20262;-81
2023/04/01 02:17:47;;;;;;;8.53;6.10;;;8.80;99.90;;;;;;10209022;29;20641;-81
2023/04/01 02:22:55;;;;;;;7.53;6.03;;;8.80;99.90;;;;;;10192026;29;20267;-81
2023/04/01 02:27:59;;;;;;;6.83;6.07;;;8.80;99.90;;;;;;10208828;29;20278;-81
2023/04/01 02:33:05;;;;;;;8.17;7.30;;;8.80;99.90;;;;;;10208302;29;20273;-81
2023/04/01 02:38:08;;;;;;;7.50;6.23;;;8.80;99.90;;;;;;10191757;29;20211;-81
2023/04/01 02:43:11;;;;;;;8.23;6.57;;;8.80;99.90;;;;;;10192040;29;20249;-81
2023/04/01 02:48:14;;;;;;;8.33;7.47;;;8.70;99.90;;;;;;10208408;29;20313;-81
2023/04/01 02:53:17;;;;;;;8.97;7.17;;;8.70;99.90;;;;;;10207514;29;20782;-81
2023/04/01 02:58:19;;;;;;;7.83;6.60;;;8.70;99.90;;;;;;10207339;29;20266;-81
2023/04/01 03:03:22;;;;;;;8.23;7.10;;;8.70;99.90;;;;;;10207106;29;20239;-81
2023/04/01 03:08:25;;;;;;;14.03;7.97;;;8.70;99.90;;;;;;10190154;29;20677;-81
2023/04/01 03:13:28;;;;;;;10.20;7.97;;;8.70;99.90;;;;;;10191434;29;20293;-81
2023/04/01 03:18:31;;;;;;;9.63;7.27;;;8.60;99.90;;;;;;10176381;29;20595;-81
2023/04/01 03:23:33;;;;;;;12.37;8.23;;;8.60;99.90;;;;;;10184070;29;20593;-81
2023/04/01 03:28:36;;;;;;;8.37;6.87;;;8.70;99.90;;;;;;10205843;29;20618;-81
2023/04/01 03:33:39;;;;;;;11.20;8.53;;;8.70;99.90;;;;;;10206021;29;20324;-81
2023/04/01 03:38:44;;;;;;;10.23;8.50;;;8.70;99.90;;;;;;10206100;29;20239;-81
2023/04/01 03:43:50;;;;;;;11.83;8.47;;;8.60;99.90;;;;;;10183095;29;20297;-81
2023/04/01 03:48:52;;;;;;;12.60;8.67;;;8.60;99.90;;;;;;10207436;29;20619;-81
2023/04/01 03:53:55;;;;;;;12.13;9.10;;;8.60;99.90;;;;;;10205948;29;20774;-81
2023/04/01 03:59:01;;;;;;;10.23;7.83;;;8.60;99.90;;;;;;10206582;29;20279;-81
2023/04/01 04:04:04;;;;;;;9.17;7.67;;;8.60;99.90;;;;;;10205458;29;20254;-81
2023/04/01 04:09:07;;;;;;;10.27;8.10;;;8.60;99.90;;;;;;10206820;29;20571;-81
2023/04/01 04:14:10;;;;;;;9.47;8.13;;;8.50;99.90;;;;;;10214261;29;20254;-81
2023/04/01 04:19:12;;;;;;;10.73;7.77;;;8.50;99.90;;;;;;10216216;29;20264;-81
2023/04/01 04:24:15;;;;;;;10.20;8.40;;;8.50;99.90;;;;;;10185947;29;20248;-81
2023/04/01 04:29:36;;;;;;;9.90;8.50;;;8.40;99.90;;;;;;10188224;29;20273;-81
2023/04/01 04:34:39;;;;;;;9.37;7.27;;;8.30;99.90;;;;;;10236551;29;20651;-81
2023/04/01 04:39:41;;;;;;;9.00;7.93;;;8.20;99.90;;;;;;10219114;29;20604;-81
2023/04/01 04:44:44;;;;;;;11.47;7.37;;;8.30;99.90;;;;;;10212473;29;20244;-81
2023/04/01 04:49:47;;;;;;;10.33;8.00;;;8.30;99.90;;;;;;10210768;29;20242;-81
2023/04/01 04:54:50;;;;;;;7.80;6.83;;;8.30;99.90;;;;;;10211140;29;20324;-81
2023/04/01 04:59:52;;;;;;;7.00;6.13;;;8.30;99.90;;;;;;10211845;29;20228;-81
2023/04/01 05:05:19;;;;;;;6.83;6.13;;;8.30;99.90;;;;;;10184794;29;20593;-81
2023/04/01 05:10:22;;;;;;;8.43;6.87;;;8.40;99.90;;;;;;10206093;29;20297;-81
2023/04/01 05:15:24;;;;;;;7.63;6.73;;;8.40;99.90;;;;;;10197467;29;20256;-81
2023/04/01 05:20:27;;;;;;;7.20;6.50;;;8.50;99.90;;;;;;10193300;29;20292;-81
2023/04/01 05:25:30;;;;;;;8.00;6.70;;;8.50;99.90;;;;;;10171850;29;20266;-81
2023/04/01 05:30:33;;;;;;;7.40;5.93;;;8.60;99.90;;;;;;10200764;29;20671;-81
2023/04/01 05:35:42;;;;;;;8.40;6.93;;;8.70;99.90;;;;;;10208063;29;20259;-81
2023/04/01 05:40:45;;;;;;;7.70;6.80;;;8.70;99.90;;;;;;10209908;29;20815;-81
2023/04/01 05:45:48;;;;;;;8.83;7.50;;;8.80;99.90;;;;;;10194674;29;20218;-81
2023/04/01 05:51:15;;;;;;;11.37;8.50;;;8.80;99.90;;;;;;10209046;29;20808;-81
2023/04/01 05:56:18;;;;;;;8.47;7.57;;;8.80;99.90;;;;;;10209675;29;20262;-81
2023/04/01 06:01:24;;;;;;;8.83;7.73;;;8.90;99.90;;;;;;10209026;29;20274;-81
2023/04/01 06:06:29;;;;;;;9.40;7.87;;;8.90;99.90;;;;;;10208115;29;20245;-82
2023/04/01 06:12:07;;;;;;;8.70;7.80;;;8.90;99.90;;;;;;10185608;29;20301;-82
2023/04/01 06:17:43;;;;;;;9.73;7.87;;;8.90;99.90;;;;;;10186996;28;20297;-81
2023/04/01 06:23:06;;;;;;;10.73;9.13;;;8.90;99.90;;;;;;10208413;29;20249;-82
2023/04/01 06:28:29;;;;;;;10.07;8.97;;;8.90;99.90;;;;;;10208772;29;20238;-82
2023/04/01 06:33:58;;;;;;;12.80;10.10;;;8.90;99.90;;;;;;10209504;29;20258;-82
2023/04/01 06:39:08;;;;;;;9.63;8.07;;;9.00;99.90;;;;;;10207598;29;20241;-82
2023/04/01 06:44:27;;;;;;;7.93;7.00;;;9.00;99.90;;;;;;10193551;29;20321;-82
2023/04/01 06:50:26;;;;;;;9.40;7.93;;;9.00;99.90;;;;;;10208131;29;20244;-83
2023/04/01 06:56:11;;;;;;;9.87;7.37;;;9.10;99.90;;;;;;10142410;29;20270;-82
2023/04/01 07:01:51;;;;;;;8.03;6.43;;;9.10;99.90;;;;;;10130717;29;20251;-82
2023/04/01 07:07:04;;;;;;;8.03;5.57;;;9.20;99.90;;;;;;10132363;29;20238;-82
2023/04/01 07:12:36;;;;;;;10.13;6.10;;;9.30;99.90;;;;;;10108318;29;20686;-80
2023/04/01 07:18:09;;;;;;;5.57;5.00;;;9.30;99.90;;;;;;10124030;29;20254;-82
2023/04/01 07:23:26;;;;;;;6.27;5.37;;;9.30;99.90;;;;;;10129896;29;20715;-81
2023/04/01 07:28:44;;;;;;;5.83;5.20;;;9.40;99.90;;;;;;10152318;29;20247;-82
2023/04/01 07:34:28;;;;;;;7.80;6.97;;;9.40;99.90;;;;;;10206689;29;20802;-80
2023/04/01 07:39:52;;;;;;;6.53;5.73;;;9.50;99.90;;;;;;10205081;29;20289;-80
2023/04/01 07:45:30;;;;;;;7.13;4.97;;;9.50;99.90;;;;;;10205168;29;20246;-80
2023/04/01 07:50:49;;;;;;;6.00;4.17;;;9.70;99.90;;;;;;10189860;29;20305;-80
2023/04/01 07:56:33;;;;;;;4.63;4.20;;;9.80;99.90;;;;;;10202824;29;20258;-80
2023/04/01 08:02:06;;;;;;;5.30;4.77;;;10.00;99.90;;;;;;10207371;29;20695;-80
2023/04/01 08:07:40;;;;;;;8.08;4.36;;;10.10;99.90;;;;;;10077678;29;10000720;-81
2023/04/01 08:13:15;;;;;;;3.77;3.40;;;10.00;99.90;;;;;;10218698;29;20589;-80
2023/04/01 08:18:53;;;;;;;4.97;4.43;;;10.10;99.90;;;;;;10214117;29;20278;-80
2023/04/01 08:23:59;;;;;;;4.70;4.30;;;10.30;99.90;;;;;;10211281;29;20246;-80
2023/04/01 08:29:07;;;;;;;7.33;4.83;;;10.30;99.90;;;;;;10212758;29;20239;-80
2023/04/01 08:34:18;;;;;;;8.10;6.17;;;10.20;99.90;;;;;;10204887;29;20291;-80
2023/04/01 08:39:56;;;;;;;7.67;6.23;;;10.10;99.90;;;;;;10181673;29;20312;-80
2023/04/01 08:45:10;;;;;;;14.97;9.43;;;10.00;99.90;;;;;;10204217;28;20294;-80
2023/04/01 08:50:40;;;;;;;15.53;10.53;;;9.70;99.90;;;;;;10208094;29;20256;-80
2023/04/01 08:56:19;;;;;;;13.60;10.07;;;9.60;99.90;;;;;;10209664;29;20810;-80
2023/04/01 09:01:37;;;;;;;13.63;9.20;;;9.60;99.90;;;;;;10210515;29;20696;-80
2023/04/01 09:07:03;;;;;;;12.73;8.70;;;9.60;99.90;;;;;;10213134;29;20670;-81
2023/04/01 09:12:28;;;;;;;10.33;7.47;;;9.80;99.90;;;;;;10194462;29;20242;-80
2023/04/01 09:17:40;;;;;;;9.03;7.07;;;9.90;99.90;;;;;;10194546;29;20235;-80
2023/04/01 09:23:06;;;;;;;15.33;9.50;;;10.00;99.90;;;;;;10200097;29;20278;-79
2023/04/01 09:28:37;;;;;;;15.20;10.80;;;9.90;99.90;;;;;;10165681;29;20302;-80
2023/04/01 09:33:45;;;;;;;16.63;9.67;;;9.50;99.90;;;;;;10159819;29;20270;-81
2023/04/01 09:38:59;;;;;;;17.97;10.90;;;9.40;99.90;;;;;;10160272;29;20242;-80
2023/04/01 09:44:19;;;;;;;16.83;11.20;;;9.50;99.90;;;;;;10148599;29;20249;-80
2023/04/01 09:50:05;;;;;;;16.30;10.00;;;9.40;99.90;;;;;;10158942;29;20642;-80
2023/04/01 09:55:11;;;;;;;17.40;11.47;;;9.50;99.90;;;;;;10150716;28;20736;-80
2023/04/01 10:00:24;;;;;;;20.17;14.57;;;9.50;99.90;;;;;;10149468;29;20765;-82
2023/04/01 10:05:56;;;;;;;21.23;14.33;;;9.40;99.90;;;;;;10183414;29;20638;-81
2023/04/01 10:11:21;;;;;;;26.10;15.13;;;9.40;99.90;;;;;;10207683;29;20245;-82
2023/04/01 10:17:07;;;;;;;26.10;16.63;;;9.30;99.90;;;;;;10169267;29;20683;-82
2023/04/01 10:22:25;;;;;;;26.13;16.80;;;9.40;99.90;;;;;;10193337;29;20277;-82
2023/04/01 10:27:53;;;;;;;31.13;18.10;;;9.30;99.90;;;;;;10207216;29;20237;-81
2023/04/01 10:33:38;;;;;;;30.00;16.13;;;9.30;99.90;;;;;;10188529;29;20471;-83
2023/04/01 10:38:56;;;;;;;26.40;15.53;;;9.50;99.90;;;;;;10200057;29;20230;-82
2023/04/01 10:44:01;;;;;;;25.20;17.10;;;9.80;99.90;;;;;;10188974;29;20775;-81
2023/04/01 10:49:34;;;;;;;28.67;17.57;;;9.80;99.90;;;;;;10198230;29;20237;-81
2023/04/01 10:54:53;;;;;;;25.67;16.33;;;9.70;99.90;;;;;;10206087;29;20262;-81
2023/04/01 11:00:25;;;;;;;31.93;18.53;;;9.60;99.90;;;;;;10205366;29;20242;-81
2023/04/01 11:05:50;;;;;;;33.97;18.60;;;9.50;99.90;;;;;;10197020;29;20601;-83
2023/04/01 11:11:17;;;;;;;29.30;18.30;;;9.30;99.90;;;;;;10205695;29;20275;-81
2023/04/01 11:16:39;;;;;;;31.93;17.87;;;9.30;99.90;;;;;;10205311;29;20262;-81
2023/04/01 11:22:17;;;;;;;27.33;17.27;;;9.40;99.90;;;;;;10204403;29;20280;-81
2023/04/01 11:27:37;;;;;;;27.00;15.70;;;9.50;99.90;;;;;;10168605;29;20233;-81
2023/04/01 11:33:12;;;;;;;21.90;14.27;;;9.30;99.90;;;;;;10204915;29;20242;-81
2023/04/01 11:38:40;;;;;;;18.10;12.77;;;9.40;99.90;;;;;;10201740;29;20241;-81
2023/04/01 11:44:22;;;;;;;19.60;12.97;;;9.60;99.90;;;;;;10184657;29;20252;-81
2023/04/01 11:50:10;;;;;;;15.33;12.27;;;9.60;99.90;;;;;;10197063;29;20684;-81
2023/04/01 11:55:32;;;;;;;18.37;13.37;;;9.50;99.90;;;;;;10209272;29;20265;-81
2023/04/01 12:00:53;;;;;;;20.17;12.97;;;9.40;99.90;;;;;;10203753;29;20238;-81
2023/04/01 12:06:52;;;;;;;29.63;19.10;;;9.30;99.90;;;;;;10204343;29;20355;-80
2023/04/01 12:12:12;;;;;;;15.57;11.40;;;9.00;99.90;;;;;;10120063;29;20658;-80
2023/04/01 12:17:32;;;;;;;20.63;14.90;;;8.90;99.90;;;;;;10107934;29;20324;-80
2023/04/01 12:22:41;;;;;;;14.97;11.43;;;8.80;99.90;;;;;;10104673;29;20301;-82
2023/04/01 12:27:49;;;;;;;27.70;17.60;;;8.80;99.90;;;;;;10111575;29;20254;-82
2023/04/01 12:33:08;;;;;;;31.57;18.50;;;8.80;99.90;;;;;;10114873;29;20246;-81
2023/04/01 12:38:48;;;;;;;27.43;15.43;;;8.70;99.90;;;;;;10123127;29;20278;-80
2023/04/01 12:44:26;;;;;;;12.00;9.97;;;8.90;99.90;;;;;;10206025;29;20238;-82
2023/04/01 12:49:41;;;;;;;17.83;13.83;;;8.90;99.90;;;;;;10205702;29;20652;-81
2023/04/01 12:55:19;;;;;;;16.00;11.77;;;8.80;99.90;;;;;;10212231;29;20696;-82
2023/04/01 13:01:04;;;;;;;14.33;10.43;;;8.80;99.90;;;;;;10203618;29;20234;-81
2023/04/01 13:06:25;;;;;;;11.93;9.37;;;8.80;99.90;;;;;;10207296;29;20301;-82
2023/04/01 13:11:35;;;;;;;11.17;9.43;;;8.80;99.90;;;;;;10210329;29;20266;-82
2023/04/01 13:16:56;;;;;;;8.93;8.03;;;9.10;99.90;;;;;;10212746;29;20308;-82
2023/04/01 13:22:11;;;;;;;7.53;6.77;;;9.30;99.90;;;;;;10206705;29;20266;-82
2023/04/01 13:27:18;;;;;;;7.90;7.10;;;9.20;99.90;;;;;;10204289;29;20242;-82
2023/04/01 13:32:49;;;;;;;9.03;7.57;;;9.10;99.90;;;;;;10191947;29;20298;-81
2023/04/01 13:38:29;;;;;;;12.40;7.97;;;9.10;99.90;;;;;;10206578;29;20313;-82
2023/04/01 13:43:39;;;;;;;16.60;8.87;;;9.10;99.90;;;;;;10208272;29;20236;-83
2023/04/01 13:49:12;;;;;;;16.03;11.80;;;8.90;99.90;;;;;;10210574;29;20308;-82
2023/04/01 13:54:20;;;;;;;8.10;7.27;;;8.80;99.90;;;;;;10210119;29;20323;-82
2023/04/01 13:59:50;;;;;;;6.33;5.73;;;8.70;99.90;;;;;;10196853;29;20691;-81
2023/04/01 14:04:59;;;;;;;7.97;6.57;;;8.80;99.90;;;;;;10208773;29;20304;-81
2023/04/01 14:10:19;;;;;;;7.33;6.63;;;8.80;99.90;;;;;;10198462;29;20771;-81
2023/04/01 14:15:48;;;;;;;8.07;7.27;;;8.80;99.90;;;;;;10204354;29;20717;-81
2023/04/01 14:21:18;;;;;;;7.73;6.50;;;8.60;99.90;;;;;;10193401;29;20713;-82
2023/04/01 14:26:21;;;;;;;8.80;8.00;;;8.80;99.90;;;;;;10206515;29;20267;-82
2023/04/01 14:31:38;;;;;;;8.33;7.30;;;9.20;99.90;;;;;;10207307;29;20675;-82
2023/04/01 14:36:58;;;;;;;8.13;7.33;;;9.30;99.90;;;;;;10198819;29;20666;-82
2023/04/01 14:42:16;;;;;;;9.20;7.73;;;9.00;99.90;;;;;;10205406;29;20660;-82
2023/04/01 14:47:47;;;;;;;9.23;8.07;;;9.00;99.90;;;;;;10200255;29;20239;-81
2023/04/01 14:52:49;;;;;;;9.03;7.53;;;8.90;99.90;;;;;;10199322;29;20265;-82
2023/04/01 14:58:25;;;;;;;9.73;8.37;;;8.70;99.90;;;;;;10209379;29;20314;-80
2023/04/01 15:03:31;;;;;;;8.53;7.67;;;8.70;99.90;;;;;;10192917;29;20286;-83
2023/04/01 15:08:47;;;;;;;8.17;7.37;;;8.60;99.90;;;;;;10207260;29;20234;-83
2023/04/01 15:14:08;;;;;;;8.93;8.03;;;8.50;99.90;;;;;;10210895;29;20232;-80
2023/04/01 15:19:38;;;;;;;7.40;6.70;;;8.50;99.90;;;;;;10222486;29;20321;-81
2023/04/01 15:25:05;;;;;;;7.63;6.83;;;8.50;99.90;;;;;;10204725;29;20236;-82
2023/04/01 15:30:32;;;;;;;8.50;7.43;;;8.40;99.90;;;;;;10199009;29;20237;-82
2023/04/01 15:35:39;;;;;;;15.47;9.50;;;8.30;99.90;;;;;;10192949;29;20651;-82
2023/04/01 15:40:59;;;;;;;20.20;14.37;;;8.30;99.90;;;;;;10217456;28;20635;-83
2023/04/01 15:46:27;;;;;;;32.67;14.90;;;8.20;99.90;;;;;;10202402;29;20786;-84
2023/04/01 15:51:56;;;;;;;12.47;5.70;;;8.30;99.90;;;;;;10205926;29;20276;-84
2023/04/01 15:57:16;;;;;;;6.93;5.90;;;8.90;99.90;;;;;;10206435;29;20282;-84
2023/04/01 16:03:10;;;;;;;16.70;12.97;;;8.80;99.90;;;;;;10188996;29;20242;-84
2023/04/01 16:08:21;;;;;;;7.17;6.43;;;8.70;99.90;;;;;;10123493;29;20259;-84
2023/04/01 16:13:48;;;;;;;6.10;5.50;;;8.60;99.90;;;;;;10123463;29;20260;-84
2023/04/01 16:19:18;;;;;;;6.27;5.67;;;8.60;99.90;;;;;;10122712;29;20311;-84
2023/04/01 16:24:23;;;;;;;6.97;6.20;;;8.40;99.90;;;;;;10103775;29;20896;-84
2023/04/01 16:29:49;;;;;;;7.63;6.30;;;8.30;99.90;;;;;;10092135;29;20250;-85
2023/04/01 16:35:10;;;;;;;10.27;7.40;;;8.30;99.90;;;;;;10091865;29;20339;-85
2023/04/01 16:40:25;;;;;;;6.67;5.97;;;8.20;99.90;;;;;;10099083;29;20702;-85
2023/04/01 16:45:43;;;;;;;10.20;7.43;;;8.20;99.90;;;;;;10174236;29;20679;-84
2023/04/01 16:50:54;;;;;;;11.20;7.43;;;7.90;99.90;;;;;;10174312;29;20309;-84
2023/04/01 16:56:20;;;;;;;9.10;6.70;;;7.80;99.90;;;;;;10173033;29;20274;-85
2023/04/01 17:01:29;;;;;;;8.57;7.77;;;7.60;99.90;;;;;;10171601;29;21060;-84
2023/04/01 17:06:53;;;;;;;7.73;6.83;;;7.40;99.90;;;;;;10227397;29;20258;-84
2023/04/01 17:12:10;;;;;;;9.10;8.20;;;7.50;99.90;;;;;;10228854;29;20233;-84
2023/04/01 17:17:38;;;;;;;8.50;7.70;;;7.40;99.90;;;;;;10235702;29;20259;-84
2023/04/01 17:22:49;;;;;;;9.97;9.00;;;7.20;99.90;;;;;;10226458;29;20273;-81
2023/04/01 17:28:28;;;;;;;9.40;8.00;;;7.10;99.90;;;;;;10214205;23;20659;-81
2023/04/01 17:34:01;;;;;;;10.43;8.07;;;6.90;99.90;;;;;;10211267;29;20680;-81
2023/04/01 17:39:29;;;;;;;12.93;9.63;;;7.00;99.90;;;;;;10211104;29;20314;-83
2023/04/01 17:44:31;;;;;;;15.80;11.63;;;7.00;99.90;;;;;;10209671;29;20299;-85
2023/04/01 17:50:04;;;;;;;8.17;7.10;;;6.90;99.90;;;;;;10211361;29;20712;-85
2023/04/01 17:55:10;;;;;;;6.20;5.50;;;7.10;99.90;;;;;;10210534;29;20262;-84
2023/04/01 18:00:12;;;;;;;7.53;6.60;;;7.30;99.90;;;;;;10201582;29;20632;-83
2023/04/01 18:05:42;;;;;;;6.10;5.50;;;7.10;99.90;;;;;;10171874;29;20250;-83
2023/04/01 18:11:06;;;;;;;7.93;6.60;;;6.90;99.90;;;;;;10178392;29;20233;-83
2023/04/01 18:16:37;;;;;;;6.10;5.57;;;6.70;99.90;;;;;;10210163;29;20258;-83
2023/04/01 18:21:58;;;;;;;6.37;5.77;;;6.60;99.90;;;;;;10208443;29;20278;-83
2023/04/01 18:27:11;;;;;;;7.57;4.73;;;6.60;99.90;;;;;;10208771;29;20572;-84
2023/04/01 18:32:19;;;;;;;7.53;5.37;;;6.60;99.90;;;;;;10201097;29;21003;-83
2023/04/01 18:37:31;;;;;;;6.43;5.50;;;6.90;99.90;;;;;;10205951;29;20253;-84
2023/04/01 18:42:59;;;;;;;5.57;5.07;;;6.70;99.90;;;;;;10207816;29;20238;-82
2023/04/01 18:48:13;;;;;;;5.37;4.90;;;6.60;99.90;;;;;;10172991;29;20235;-82
2023/04/01 18:53:34;;;;;;;5.13;4.60;;;6.60;99.90;;;;;;10205119;29;20245;-83
2023/04/01 18:58:48;;;;;;;4.97;4.47;;;6.60;99.90;;;;;;10215168;23;20719;-85
2023/04/01 19:04:11;;;;;;;5.03;4.57;;;6.40;99.90;;;;;;10202483;29;20640;-85
2023/04/01 19:09:24;;;;;;;6.93;5.40;;;6.40;99.90;;;;;;10207136;29;20241;-86
2023/04/01 19:14:59;;;;;;;5.00;4.43;;;6.60;99.90;;;;;;10206604;29;20238;-86
2023/04/01 19:20:31;;;;;;;5.03;4.60;;;6.60;99.90;;;;;;10044136;29;20835;-85
2023/04/01 19:25:42;;;;;;;6.23;5.33;;;6.50;99.90;;;;;;10059662;29;20699;-86
2023/04/01 19:31:16;;;;;;;6.60;5.37;;;6.20;99.90;;;;;;10046403;29;20234;-86
2023/04/01 19:36:42;;;;;;;6.10;5.33;;;6.20;99.90;;;;;;10045165;29;20275;-86
2023/04/01 19:42:15;;;;;;;5.33;4.63;;;6.30;99.90;;;;;;10045909;29;20237;-87
2023/04/01 19:47:45;;;;;;;4.97;3.93;;;6.20;99.90;;;;;;10052051;29;20389;-86
2023/04/01 19:52:49;;;;;;;5.47;4.90;;;6.00;99.90;;;;;;10032142;29;20505;-87
2023/04/01 19:58:31;;;;;;;6.93;4.43;;;5.90;99.90;;;;;;10192911;29;20705;-87
2023/04/01 20:03:46;;;;;;;5.27;4.40;;;5.80;99.90;;;;;;10208221;29;20241;-86
2023/04/01 20:09:13;;;;;;;4.37;3.97;;;5.90;99.90;;;;;;10206555;29;20619;-85
2023/04/01 20:14:23;;;;;;;6.43;4.93;;;6.00;99.90;;;;;;10206441;29;20254;-87
2023/04/01 20:19:40;;;;;;;6.47;5.40;;;5.90;99.90;;;;;;10206574;29;20322;-86
2023/04/01 20:24:46;;;;;;;5.20;4.70;;;5.90;99.90;;;;;;10206799;29;20222;-85
2023/04/01 20:29:59;;;;;;;7.97;4.87;;;5.90;99.90;;;;;;10208141;29;20214;-87
2023/04/01 20:35:29;;;;;;;5.23;4.37;;;6.10;99.90;;;;;;10186032;29;20575;-87
2023/04/01 20:40:40;;;;;;;5.27;4.47;;;6.00;99.90;;;;;;10207725;29;20286;-87
2023/04/01 20:45:59;;;;;;;6.07;5.50;;;5.80;99.90;;;;;;10208197;29;20211;-87
2023/04/01 20:51:09;;;;;;;8.43;5.50;;;5.60;99.90;;;;;;10203967;29;20258;-86
2023/04/01 20:56:27;;;;;;;5.40;4.90;;;5.60;99.90;;;;;;10203903;29;20298;-86
2023/04/01 21:01:48;;;;;;;6.63;5.13;;;5.70;99.90;;;;;;10197553;29;20238;-86
2023/04/01 21:07:00;;;;;;;5.30;4.77;;;5.70;99.90;;;;;;10203812;29;20584;-86
2023/04/01 21:12:30;;;;;;;6.73;5.03;;;5.70;99.90;;;;;;10210878;29;20244;-86
2023/04/01 21:17:42;;;;;;;7.03;5.60;;;5.70;99.90;;;;;;10212197;29;20265;-86
2023/04/01 21:23:13;;;;;;;7.63;6.93;;;5.60;99.90;;;;;;10204833;29;20229;-86
2023/04/01 21:28:16;;;;;;;6.43;5.83;;;5.60;99.90;;;;;;10208035;29;20246;-87
2023/04/01 21:33:46;;;;;;;6.93;6.23;;;5.50;99.90;;;;;;10210635;29;20655;-87
2023/04/01 21:39:08;;;;;;;7.50;6.73;;;5.50;99.90;;;;;;10212288;29;20258;-87
2023/04/01 21:44:22;;;;;;;9.43;7.93;;;5.40;99.90;;;;;;10206875;29;20281;-86
2023/04/01 21:49:30;;;;;;;13.23;9.00;;;5.40;99.90;;;;;;10211099;29;20241;-87
2023/04/01 21:54:46;;;;;;;10.23;6.83;;;5.30;99.90;;;;;;10209860;29;20242;-86
2023/04/01 22:00:10;;;;;;;10.30;7.77;;;5.20;99.90;;;;;;10207744;29;20279;-87
2023/04/01 22:05:25;;;;;;;11.97;7.33;;;5.10;99.90;;;;;;10205062;29;20226;-86
2023/04/01 22:10:58;;;;;;;10.57;7.77;;;5.20;99.90;;;;;;10207356;29;20301;-86
2023/04/01 22:16:21;;;;;;;7.73;6.60;;;5.50;99.90;;;;;;10202437;29;20309;-86
2023/04/01 22:22:00;;;;;;;11.30;6.57;;;5.50;99.90;;;;;;10208810;29;20235;-86
2023/04/01 22:27:26;;;;;;;8.60;7.20;;;5.20;99.90;;;;;;10208396;29;20251;-86
2023/04/01 22:32:39;;;;;;;7.40;6.57;;;5.10;99.90;;;;;;10209214;29;20277;-87
2023/04/01 22:38:06;;;;;;;8.83;6.53;;;5.10;99.90;;;;;;10207743;29;20339;-87
2023/04/01 22:43:12;;;;;;;8.30;6.33;;;5.00;99.90;;;;;;10202561;29;20233;-87
2023/04/01 22:48:38;;;;;;;6.63;5.10;;;4.80;99.90;;;;;;10208201;29;20284;-87
2023/04/01 22:53:46;;;;;;;9.20;6.67;;;5.00;99.90;;;;;;10208439;29;20311;-87
2023/04/01 22:59:02;;;;;;;7.20;6.50;;;4.90;99.90;;;;;;10208509;29;20326;-87
2023/04/01 23:04:06;;;;;;;9.40;6.07;;;4.70;99.90;;;;;;10208030;29;20233;-87
2023/04/01 23:09:20;;;;;;;5.47;4.93;;;4.70;99.90;;;;;;10208070;29;20236;-86
2023/04/01 23:14:43;;;;;;;4.63;3.83;;;4.80;99.90;;;;;;10208644;29;20268;-87
2023/04/01 23:20:23;;;;;;;5.83;4.67;;;4.70;99.90;;;;;;10206623;29;20321;-86
2023/04/01 23:25:42;;;;;;;5.67;4.70;;;4.70;99.90;;;;;;10202137;29;20266;-86
2023/04/01 23:30:44;;;;;;;7.33;4.93;;;4.60;99.90;;;;;;10207294;29;20240;-86
2023/04/01 23:36:11;;;;;;;5.27;3.50;;;4.40;99.90;;;;;;10205712;29;20241;-86
2023/04/01 23:41:28;;;;;;;6.23;4.17;;;4.60;99.90;;;;;;10206588;29;20302;-85
2023/04/01 23:46:34;;;;;;;4.57;3.70;;;4.50;99.90;;;;;;10206710;29;20242;-86
2023/04/01 23:51:46;;;;;;;6.23;4.80;;;4.70;99.90;;;;;;10207248;29;20273;-86
2023/04/01 23:56:52;;;;;;;6.27;5.03;;;4.60;99.90;;;;;;10206354;29;20259;-86
